createdAt,value
2023-01-05T00:00:48.437Z,80.83
2023-01-05T00:01:51.015Z,80.80
2023-01-05T00:02:54.060Z,81.34
2023-01-05T00:03:56.218Z,80.94
2023-01-05T00:04:58.680Z,80.79
2023-01-05T00:06:07.088Z,80.80
2023-01-05T00:07:09.400Z,81.37
2023-01-05T00:08:13.801Z,81.41
2023-01-05T00:09:18.781Z,80.60
2023-01-05T00:10:39.607Z,80.60
2023-01-05T00:12:00.945Z,80.36
2023-01-05T00:13:21.716Z,80.40
2023-01-05T00:14:45.976Z,80.09
2023-01-05T00:16:07.479Z,80.39
2023-01-05T00:17:31.508Z,81.44
2023-01-05T00:18:52.394Z,81.11
2023-01-05T00:20:13.043Z,81.01
2023-01-05T00:21:34.140Z,81.52
2023-01-05T00:22:40.010Z,81.14
2023-01-05T00:23:42.042Z,80.44
2023-01-05T00:24:45.242Z,79.89
2023-01-05T00:25:47.219Z,80.37
2023-01-05T00:26:49.316Z,80.20
2023-01-05T00:27:53.788Z,80.59
2023-01-05T00:28:55.976Z,80.96
2023-01-05T00:29:58.763Z,79.96
2023-01-05T00:31:01.099Z,80.49
2023-01-05T00:32:03.098Z,80.49
2023-01-05T00:33:07.885Z,81.54
2023-01-05T00:34:09.948Z,81.04
2023-01-05T00:35:14.059Z,80.34
2023-01-05T00:36:16.904Z,81.23
2023-01-05T00:37:19.075Z,81.24
2023-01-05T00:38:21.123Z,81.41
2023-01-05T00:39:23.189Z,81.55
2023-01-05T00:40:25.368Z,81.50
2023-01-05T00:41:28.508Z,81.43
2023-01-05T00:42:30.786Z,81.28
2023-01-05T00:43:32.987Z,81.10
2023-01-05T00:44:35.060Z,81.69
2023-01-05T00:45:37.688Z,81.16
2023-01-05T00:46:40.104Z,81.23
2023-01-05T00:47:42.516Z,81.40
2023-01-05T00:48:44.503Z,81.36
2023-01-05T00:49:46.537Z,81.95
2023-01-05T00:50:51.819Z,81.75
2023-01-05T00:51:58.534Z,81.97
2023-01-05T00:53:00.696Z,81.48
2023-01-05T00:54:06.698Z,81.44
2023-01-05T00:55:09.888Z,81.71
2023-01-05T00:56:14.345Z,81.97
2023-01-05T00:57:16.803Z,82.78
2023-01-05T00:58:18.870Z,82.59
2023-01-05T00:59:20.934Z,82.16
2023-01-05T01:00:24.009Z,82.11
2023-01-05T01:01:26.778Z,81.71
2023-01-05T01:02:30.059Z,81.48
2023-01-05T01:03:32.365Z,81.48
2023-01-05T01:04:35.267Z,81.72
2023-01-05T01:05:38.664Z,81.93
2023-01-05T01:06:41.230Z,81.90
2023-01-05T01:07:43.325Z,81.89
2023-01-05T01:08:45.340Z,81.65
2023-01-05T01:09:47.392Z,81.82
2023-01-05T01:10:49.803Z,82.47
2023-01-05T01:11:51.888Z,81.88
2023-01-05T01:12:54.498Z,81.88
2023-01-05T01:13:57.184Z,81.94
2023-01-05T01:14:59.906Z,81.73
2023-01-05T01:16:10.360Z,81.51
2023-01-05T01:17:12.955Z,81.09
2023-01-05T01:18:15.480Z,81.24
2023-01-05T01:19:20.399Z,80.92
2023-01-05T01:20:23.478Z,81.27
2023-01-05T01:21:26.305Z,81.20
2023-01-05T01:22:28.710Z,81.32
2023-01-05T01:23:33.555Z,81.24
2023-01-05T01:24:35.959Z,81.45
2023-01-05T01:25:39.303Z,81.44
2023-01-05T01:26:41.602Z,81.83
2023-01-05T01:27:43.817Z,81.21
2023-01-05T01:28:49.056Z,81.16
2023-01-05T01:29:51.120Z,81.19
2023-01-05T01:30:53.305Z,80.97
2023-01-05T01:31:55.899Z,81.12
2023-01-05T01:32:58.429Z,80.97
2023-01-05T01:34:01.612Z,81.43
2023-01-05T01:35:04.791Z,81.06
2023-01-05T01:36:09.181Z,81.31
2023-01-05T01:37:12.499Z,81.52
2023-01-05T01:38:16.945Z,81.56
2023-01-05T01:39:19.574Z,81.61
2023-01-05T01:40:24.019Z,81.67
2023-01-05T01:41:26.648Z,81.84
2023-01-05T01:42:29.059Z,81.88
2023-01-05T01:43:46.904Z,82.12
2023-01-05T01:44:59.615Z,82.03
2023-01-05T01:46:03.963Z,82.19
2023-01-05T01:47:06.192Z,82.63
2023-01-05T01:48:12.182Z,82.58
2023-01-05T01:49:15.255Z,81.97
2023-01-05T01:50:23.019Z,81.76
2023-01-05T01:51:31.602Z,81.61
2023-01-05T01:52:35.187Z,81.47
2023-01-05T01:53:44.008Z,82.21
2023-01-05T01:54:47.944Z,82.21
2023-01-05T01:55:53.138Z,81.97
2023-01-05T01:56:56.020Z,82.41
2023-01-05T01:58:01.086Z,82.57
2023-01-05T01:59:03.656Z,82.40
2023-01-05T02:00:09.184Z,82.22
2023-01-05T02:01:20.462Z,82.49
2023-01-05T02:02:23.234Z,82.26
2023-01-05T02:03:28.718Z,82.59
2023-01-05T02:04:33.367Z,82.13
2023-01-05T02:05:37.528Z,82.49
2023-01-05T02:06:39.860Z,82.06
2023-01-05T02:07:47.130Z,82.25
2023-01-05T02:08:49.811Z,82.09
2023-01-05T02:09:52.166Z,81.97
2023-01-05T02:11:01.202Z,82.32
2023-01-05T02:12:22.387Z,81.70
2023-01-05T02:14:01.739Z,81.88
2023-01-05T02:15:07.807Z,82.04
2023-01-05T02:16:23.753Z,81.66
2023-01-05T02:17:33.745Z,81.80
2023-01-05T02:19:09.119Z,81.76
2023-01-05T02:20:38.019Z,81.28
2023-01-05T02:21:59.053Z,81.08
2023-01-05T02:23:17.030Z,81.19
2023-01-05T02:26:13.147Z,81.65
2023-01-05T02:27:22.103Z,81.65
2023-01-05T02:28:44.741Z,82.22
2023-01-05T02:30:06.026Z,81.87
2023-01-05T02:31:14.784Z,82.00
2023-01-05T02:32:31.490Z,82.34
2023-01-05T02:33:57.432Z,82.00
2023-01-05T02:35:26.972Z,81.06
2023-01-05T02:36:41.954Z,81.46
2023-01-05T02:37:50.532Z,81.56
2023-01-05T02:39:02.496Z,81.52
2023-01-05T02:40:19.505Z,81.67
2023-01-05T02:41:34.472Z,81.85
2023-01-05T02:42:41.515Z,81.73
2023-01-05T02:43:45.583Z,81.76
2023-01-05T02:44:48.249Z,82.11
2023-01-05T02:45:50.414Z,82.10
2023-01-05T02:47:04.251Z,82.83
2023-01-05T02:48:06.563Z,82.00
2023-01-05T02:49:09.001Z,82.10
2023-01-05T02:50:25.187Z,81.93
2023-01-05T02:51:31.075Z,82.16
2023-01-05T02:52:36.763Z,82.10
2023-01-05T02:53:42.598Z,82.35
2023-01-05T02:54:48.684Z,82.18
2023-01-05T02:56:13.449Z,81.97
2023-01-05T02:57:27.439Z,82.40
2023-01-05T02:58:36.272Z,83.20
2023-01-05T02:59:42.844Z,82.72
2023-01-05T03:00:52.062Z,82.61
2023-01-05T03:02:04.620Z,82.52
2023-01-05T03:03:13.404Z,82.72
2023-01-05T03:05:37.539Z,82.80
2023-01-05T03:06:52.081Z,83.26
2023-01-05T03:07:58.491Z,82.85
2023-01-05T03:09:04.720Z,82.56
2023-01-05T03:10:28.195Z,82.53
2023-01-05T03:11:53.248Z,82.49
2023-01-05T03:13:19.689Z,82.07
2023-01-05T03:14:25.791Z,82.26
2023-01-05T03:15:31.672Z,82.19
2023-01-05T03:16:37.319Z,82.85
2023-01-05T03:17:44.120Z,83.63
2023-01-05T03:19:07.961Z,83.51
2023-01-05T03:20:13.698Z,83.23
2023-01-05T03:21:15.934Z,82.87
2023-01-05T03:22:40.539Z,82.78
2023-01-05T03:24:02.288Z,83.26
2023-01-05T03:25:26.333Z,83.38
2023-01-05T03:26:48.770Z,83.62
2023-01-05T03:28:13.235Z,83.23
2023-01-05T03:29:34.652Z,82.77
2023-01-05T03:31:03.127Z,82.34
2023-01-05T03:32:33.098Z,82.86
2023-01-05T03:33:56.699Z,82.94
2023-01-05T03:35:29.799Z,82.24
2023-01-05T03:36:38.912Z,82.57
2023-01-05T03:38:05.964Z,83.25
2023-01-05T03:39:10.901Z,84.09
2023-01-05T03:40:26.915Z,83.75
2023-01-05T03:41:31.500Z,83.98
2023-01-05T03:42:34.025Z,84.20
2023-01-05T03:43:39.098Z,83.76
2023-01-05T03:44:46.636Z,83.65
2023-01-05T03:45:54.016Z,83.98
2023-01-05T03:46:58.147Z,84.15
2023-01-05T03:48:00.654Z,84.72
2023-01-05T03:49:03.768Z,84.68
2023-01-05T03:50:07.791Z,84.45
2023-01-05T03:51:10.264Z,85.15
2023-01-05T03:52:13.899Z,85.20
2023-01-05T03:53:17.818Z,85.58
2023-01-05T03:54:20.651Z,86.27
2023-01-05T03:55:22.896Z,87.16
2023-01-05T03:56:27.241Z,87.16
2023-01-05T03:57:31.323Z,87.16
2023-01-05T03:58:34.993Z,87.67
2023-01-05T03:59:37.242Z,88.05
2023-01-05T04:00:39.954Z,88.73
2023-01-05T04:01:42.476Z,89.08
2023-01-05T04:02:46.696Z,89.85
2023-01-05T04:03:51.524Z,90.81
2023-01-05T04:04:53.954Z,91.14
2023-01-05T04:05:57.686Z,91.38
2023-01-05T04:07:01.849Z,91.91
2023-01-05T04:08:06.851Z,92.24
2023-01-05T04:09:10.248Z,92.38
2023-01-05T04:10:15.449Z,92.59
2023-01-05T04:11:20.899Z,93.21
2023-01-05T04:12:24.989Z,93.25
2023-01-05T04:13:27.320Z,92.59
2023-01-05T04:14:30.056Z,92.40
2023-01-05T04:15:33.753Z,92.12
2023-01-05T04:16:38.141Z,92.37
2023-01-05T04:17:54.432Z,92.71
2023-01-05T04:18:56.594Z,92.62
2023-01-05T04:19:59.086Z,92.60
2023-01-05T04:21:02.267Z,92.58
2023-01-05T04:22:05.239Z,92.24
2023-01-05T04:23:07.452Z,92.44
2023-01-05T04:24:11.347Z,92.83
2023-01-05T04:25:14.748Z,93.48
2023-01-05T04:26:18.815Z,93.45
2023-01-05T04:27:22.684Z,93.24
2023-01-05T04:28:26.460Z,92.91
2023-01-05T04:29:29.628Z,92.91
2023-01-05T04:30:33.240Z,93.62
2023-01-05T04:31:36.773Z,93.80
2023-01-05T04:32:39.337Z,93.58
2023-01-05T04:33:45.985Z,94.08
2023-01-05T04:34:50.142Z,94.12
2023-01-05T04:35:54.749Z,94.06
2023-01-05T04:36:59.221Z,94.10
2023-01-05T04:38:01.486Z,94.20
2023-01-05T04:39:03.704Z,94.41
2023-01-05T04:40:07.680Z,94.64
2023-01-05T04:41:11.939Z,94.85
2023-01-05T04:42:15.708Z,95.13
2023-01-05T04:43:19.884Z,95.46
2023-01-05T04:44:23.826Z,95.68
2023-01-05T04:45:26.417Z,95.74
2023-01-05T04:46:29.036Z,95.77
2023-01-05T04:47:31.590Z,96.03
2023-01-05T04:48:34.174Z,96.21
2023-01-05T04:49:36.792Z,96.76
2023-01-05T04:50:40.532Z,96.73
2023-01-05T04:51:42.947Z,96.89
2023-01-05T04:52:45.232Z,97.08
2023-01-05T04:53:47.830Z,97.38
2023-01-05T04:54:52.201Z,97.35
2023-01-05T04:55:54.507Z,97.46
2023-01-05T04:56:57.139Z,97.49
2023-01-05T04:57:59.151Z,97.47
2023-01-05T04:59:01.320Z,97.82
2023-01-05T05:00:05.084Z,97.72
2023-01-05T05:01:08.671Z,97.70
2023-01-05T05:02:12.166Z,97.82
2023-01-05T05:03:16.624Z,97.99
2023-01-05T05:04:19.158Z,97.86
2023-01-05T05:05:23.187Z,97.30
2023-01-05T05:06:27.176Z,97.17
2023-01-05T05:07:30.261Z,97.13
2023-01-05T05:08:34.170Z,97.19
2023-01-05T05:09:37.134Z,97.28
2023-01-05T05:10:40.066Z,97.18
2023-01-05T05:11:43.321Z,97.46
2023-01-05T05:12:45.437Z,97.59
2023-01-05T05:13:48.383Z,97.71
2023-01-05T05:14:50.584Z,97.63
2023-01-05T05:15:52.830Z,97.72
2023-01-05T05:16:55.193Z,97.98
2023-01-05T05:17:57.185Z,98.08
2023-01-05T05:18:59.697Z,98.18
2023-01-05T05:20:03.349Z,98.26
2023-01-05T05:21:06.512Z,98.48
2023-01-05T05:22:10.660Z,98.59
2023-01-05T05:23:12.745Z,98.93
2023-01-05T05:24:15.598Z,99.14
2023-01-05T05:25:19.928Z,99.45
2023-01-05T05:26:23.199Z,99.72
2023-01-05T05:27:25.754Z,100.00
2023-01-05T05:28:28.697Z,100.00
2023-01-05T05:29:30.835Z,100.00
2023-01-05T05:30:33.248Z,100.00
2023-01-05T05:31:36.228Z,100.00
2023-01-05T05:32:43.980Z,100.00
2023-01-05T05:33:43.408Z,100.00
2023-01-05T05:34:45.478Z,100.00
2023-01-05T05:35:47.557Z,100.00
2023-01-05T05:36:50.361Z,100.00
2023-01-05T05:37:56.352Z,100.00
2023-01-05T05:38:57.723Z,100.00
2023-01-05T05:39:59.896Z,100.00
2023-01-05T05:41:01.926Z,100.00
2023-01-05T05:42:04.155Z,100.00
2023-01-05T05:43:07.030Z,100.00
2023-01-05T05:44:09.199Z,100.00
2023-01-05T05:45:11.951Z,100.00
2023-01-05T05:46:14.503Z,100.00
2023-01-05T05:47:16.675Z,100.00
2023-01-05T05:48:19.187Z,100.00
2023-01-05T05:49:21.418Z,100.00
2023-01-05T05:50:24.471Z,100.00
2023-01-05T05:51:27.822Z,100.00
2023-01-05T05:52:30.059Z,100.00
2023-01-05T05:53:32.177Z,100.00
2023-01-05T05:54:34.322Z,100.00
2023-01-05T05:55:36.387Z,100.00
2023-01-05T05:56:38.996Z,100.00
2023-01-05T05:57:41.632Z,100.00
2023-01-05T05:58:44.674Z,100.00
2023-01-05T05:59:46.927Z,100.00
2023-01-05T06:00:49.583Z,100.00
2023-01-05T06:01:52.002Z,100.00
2023-01-05T06:02:54.587Z,100.00
2023-01-05T06:03:57.530Z,100.00
2023-01-05T06:04:59.613Z,100.00
2023-01-05T06:06:02.603Z,100.00
2023-01-05T06:07:05.855Z,100.00
2023-01-05T06:08:08.166Z,100.00
2023-01-05T06:09:10.492Z,100.00
2023-01-05T06:10:13.390Z,100.00
2023-01-05T06:11:15.679Z,100.00
2023-01-05T06:12:18.166Z,100.00
2023-01-05T06:13:20.763Z,100.00
2023-01-05T06:14:22.958Z,100.00
2023-01-05T06:15:25.184Z,100.00
2023-01-05T06:16:28.702Z,100.00
2023-01-05T06:17:30.927Z,100.00
2023-01-05T06:18:34.938Z,100.00
2023-01-05T06:19:38.894Z,100.00
2023-01-05T06:20:41.721Z,100.00
2023-01-05T06:21:44.423Z,100.00
2023-01-05T06:22:46.731Z,100.00
2023-01-05T06:23:48.972Z,100.00
2023-01-05T06:24:50.955Z,100.00
2023-01-05T06:25:53.146Z,100.00
2023-01-05T06:26:56.044Z,100.00
2023-01-05T06:27:58.569Z,100.00
2023-01-05T06:29:00.776Z,100.00
2023-01-05T06:30:03.860Z,100.00
2023-01-05T06:31:06.287Z,100.00
2023-01-05T06:32:08.328Z,100.00
2023-01-05T06:33:10.422Z,100.00
2023-01-05T06:34:12.667Z,100.00
2023-01-05T06:35:14.983Z,100.00
2023-01-05T06:36:17.439Z,100.00
2023-01-05T06:37:21.178Z,100.00
2023-01-05T06:38:24.993Z,100.00
2023-01-05T06:39:27.219Z,100.00
2023-01-05T06:40:29.455Z,100.00
2023-01-05T06:41:31.698Z,100.00
2023-01-05T06:42:33.994Z,100.00
2023-01-05T06:43:35.983Z,100.00
2023-01-05T06:44:37.954Z,100.00
2023-01-05T06:45:40.314Z,100.00
2023-01-05T06:46:42.590Z,100.00
2023-01-05T06:47:44.760Z,100.00
2023-01-05T06:48:46.730Z,100.00
2023-01-05T06:49:48.683Z,100.00
2023-01-05T06:50:50.823Z,100.00
2023-01-05T06:51:53.086Z,100.00
2023-01-05T06:52:55.407Z,100.00
2023-01-05T06:53:57.647Z,100.00
2023-01-05T06:55:00.142Z,100.00
2023-01-05T06:56:03.420Z,100.00
2023-01-05T06:57:06.431Z,100.00
2023-01-05T06:58:09.686Z,100.00
2023-01-05T06:59:12.511Z,100.00
2023-01-05T07:00:16.168Z,100.00
2023-01-05T07:01:19.410Z,100.00
2023-01-05T07:02:22.309Z,100.00
2023-01-05T07:03:25.689Z,100.00
2023-01-05T07:04:28.273Z,100.00
2023-01-05T07:05:31.067Z,100.00
2023-01-05T07:06:35.391Z,100.00
2023-01-05T07:07:38.332Z,100.00
2023-01-05T07:08:40.517Z,100.00
2023-01-05T07:09:44.461Z,100.00
2023-01-05T07:10:47.197Z,100.00
2023-01-05T07:11:50.044Z,100.00
2023-01-05T07:12:52.348Z,100.00
2023-01-05T07:13:54.589Z,100.00
2023-01-05T07:14:58.087Z,100.00
2023-01-05T07:16:00.444Z,100.00
2023-01-05T07:17:02.883Z,100.00
2023-01-05T07:18:05.288Z,100.00
2023-01-05T07:19:07.511Z,100.00
2023-01-05T07:20:11.480Z,100.00
2023-01-05T07:21:13.874Z,100.00
2023-01-05T07:22:16.122Z,100.00
2023-01-05T07:23:19.599Z,100.00
2023-01-05T07:24:21.749Z,100.00
2023-01-05T07:25:23.824Z,100.00
2023-01-05T07:26:26.767Z,100.00
2023-01-05T07:27:28.994Z,100.00
2023-01-05T07:28:32.369Z,100.00
2023-01-05T07:29:35.704Z,100.00
2023-01-05T07:30:38.083Z,100.00
2023-01-05T07:31:40.345Z,100.00
2023-01-05T07:32:42.944Z,100.00
2023-01-05T07:33:45.222Z,100.00
2023-01-05T07:34:55.314Z,100.00
2023-01-05T07:35:52.422Z,100.00
2023-01-05T07:36:55.468Z,100.00
2023-01-05T07:37:57.736Z,100.00
2023-01-05T07:38:59.801Z,100.00
2023-01-05T07:40:02.063Z,100.00
2023-01-05T07:41:04.633Z,100.00
2023-01-05T07:42:07.290Z,100.00
2023-01-05T07:43:11.345Z,100.00
2023-01-05T07:44:13.197Z,100.00
2023-01-05T07:45:15.175Z,100.00
2023-01-05T07:46:17.649Z,100.00
2023-01-05T07:47:19.867Z,100.00
2023-01-05T07:48:23.986Z,100.00
2023-01-05T07:49:26.783Z,100.00
2023-01-05T07:50:29.515Z,100.00
2023-01-05T07:51:32.711Z,100.00
2023-01-05T07:52:34.893Z,100.00
2023-01-05T07:53:43.879Z,100.00
2023-01-05T07:54:41.954Z,100.00
2023-01-05T07:55:43.973Z,100.00
2023-01-05T07:56:46.692Z,100.00
2023-01-05T07:57:48.610Z,100.00
2023-01-05T07:58:50.610Z,100.00
2023-01-05T07:59:52.675Z,100.00
2023-01-05T08:00:55.892Z,100.00
2023-01-05T08:01:58.232Z,100.00
2023-01-05T08:03:00.341Z,100.00
2023-01-05T08:04:03.501Z,100.00
2023-01-05T08:05:06.563Z,100.00
2023-01-05T08:06:12.837Z,100.00
2023-01-05T08:07:15.211Z,100.00
2023-01-05T08:08:24.028Z,100.00
2023-01-05T08:09:39.733Z,100.00
2023-01-05T08:10:43.283Z,100.00
2023-01-05T08:11:45.244Z,100.00
2023-01-05T08:13:05.795Z,100.00
2023-01-05T08:14:07.924Z,100.00
2023-01-05T08:15:10.247Z,100.00
2023-01-05T08:16:13.448Z,100.00
2023-01-05T08:17:15.646Z,100.00
2023-01-05T08:18:18.049Z,100.00
2023-01-05T08:19:20.136Z,100.00
2023-01-05T08:20:22.224Z,100.00
2023-01-05T08:21:24.467Z,100.00
2023-01-05T08:22:26.882Z,100.00
2023-01-05T08:23:28.776Z,100.00
2023-01-05T08:24:30.939Z,100.00
2023-01-05T08:25:33.482Z,100.00
2023-01-05T08:26:37.011Z,100.00
2023-01-05T08:27:39.228Z,100.00
2023-01-05T08:28:42.443Z,100.00
2023-01-05T08:29:44.713Z,100.00
2023-01-05T08:30:47.128Z,100.00
2023-01-05T08:31:49.420Z,100.00
2023-01-05T08:32:51.517Z,100.00
2023-01-05T08:33:59.360Z,100.00
2023-01-05T08:35:01.337Z,100.00
2023-01-05T08:36:13.212Z,100.00
2023-01-05T08:37:16.528Z,100.00
2023-01-05T08:38:24.151Z,100.00
2023-01-05T08:39:27.080Z,100.00
2023-01-05T08:40:29.622Z,100.00
2023-01-05T08:41:35.647Z,100.00
2023-01-05T08:42:37.828Z,100.00
2023-01-05T08:43:39.851Z,100.00
2023-01-05T08:44:42.897Z,100.00
2023-01-05T08:45:52.014Z,100.00
2023-01-05T08:46:54.367Z,100.00
2023-01-05T08:47:56.530Z,100.00
2023-01-05T08:49:01.299Z,100.00
2023-01-05T08:50:06.190Z,100.00
2023-01-05T08:51:08.458Z,100.00
2023-01-05T08:52:10.617Z,100.00
2023-01-05T08:53:12.655Z,100.00
2023-01-05T08:54:14.520Z,100.00
2023-01-05T08:55:16.735Z,100.00
2023-01-05T08:56:20.258Z,100.00
2023-01-05T08:57:22.434Z,100.00
2023-01-05T08:58:24.458Z,100.00
2023-01-05T08:59:27.201Z,100.00
2023-01-05T09:00:29.510Z,100.00
2023-01-05T09:01:32.332Z,100.00
2023-01-05T09:02:34.890Z,100.00
2023-01-05T09:03:38.132Z,100.00
2023-01-05T09:04:40.597Z,100.00
2023-01-05T09:05:42.743Z,100.00
2023-01-05T09:06:45.094Z,100.00
2023-01-05T09:07:48.142Z,100.00
2023-01-05T09:08:50.187Z,100.00
2023-01-05T09:09:52.768Z,100.00
2023-01-05T09:10:55.049Z,100.00
2023-01-05T09:11:57.243Z,100.00
2023-01-05T09:12:59.354Z,100.00
2023-01-05T09:14:02.929Z,100.00
2023-01-05T09:15:07.318Z,100.00
2023-01-05T09:16:12.459Z,100.00
2023-01-05T09:17:16.090Z,100.00
2023-01-05T09:18:18.319Z,100.00
2023-01-05T09:19:20.256Z,100.00
2023-01-05T09:20:22.444Z,100.00
2023-01-05T09:21:24.951Z,100.00
2023-01-05T09:22:27.388Z,100.00
2023-01-05T09:23:30.565Z,100.00
2023-01-05T09:24:33.794Z,100.00
2023-01-05T09:25:38.501Z,100.00
2023-01-05T09:26:42.114Z,100.00
2023-01-05T09:27:45.286Z,100.00
2023-01-05T09:28:47.715Z,100.00
2023-01-05T09:29:49.838Z,100.00
2023-01-05T09:30:51.830Z,100.00
2023-01-05T09:31:53.908Z,100.00
2023-01-05T09:32:56.051Z,100.00
2023-01-05T09:33:59.870Z,100.00
2023-01-05T09:35:02.538Z,100.00
2023-01-05T09:36:06.325Z,100.00
2023-01-05T09:37:08.628Z,100.00
2023-01-05T09:38:10.776Z,100.00
2023-01-05T09:39:13.051Z,100.00
2023-01-05T09:40:15.589Z,100.00
2023-01-05T09:41:21.944Z,100.00
2023-01-05T09:42:26.991Z,100.00
2023-01-05T09:43:35.594Z,100.00
2023-01-05T09:44:44.605Z,100.00
2023-01-05T09:45:51.060Z,100.00
2023-01-05T09:46:56.648Z,100.00
2023-01-05T09:48:00.751Z,100.00
2023-01-05T09:49:06.331Z,100.00
2023-01-05T09:50:21.379Z,100.00
2023-01-05T09:51:24.837Z,100.00
2023-01-05T09:52:30.435Z,100.00
2023-01-05T09:53:32.025Z,100.00
2023-01-05T09:54:34.248Z,100.00
2023-01-05T09:55:37.564Z,100.00
2023-01-05T09:57:08.428Z,100.00
2023-01-05T09:58:02.461Z,100.00
2023-01-05T09:59:20.617Z,100.00
2023-01-05T10:00:25.025Z,100.00
2023-01-05T10:01:27.320Z,100.00
2023-01-05T10:02:33.355Z,100.00
2023-01-05T10:04:02.969Z,100.00
2023-01-05T10:04:44.261Z,100.00
2023-01-05T10:05:48.191Z,100.00
2023-01-05T10:06:54.187Z,100.00
2023-01-05T10:08:06.118Z,100.00
2023-01-05T10:09:11.018Z,100.00
2023-01-05T10:10:48.446Z,100.00
2023-01-05T10:12:15.886Z,100.00
2023-01-05T10:13:24.477Z,100.00
2023-01-05T10:14:39.747Z,100.00
2023-01-05T10:15:47.183Z,100.00
2023-01-05T10:16:57.669Z,100.00
2023-01-05T10:17:54.812Z,100.00
2023-01-05T10:18:58.952Z,100.00
2023-01-05T10:20:01.138Z,100.00
2023-01-05T10:21:25.148Z,100.00
2023-01-05T10:22:38.976Z,100.00
2023-01-05T10:24:03.355Z,100.00
2023-01-05T10:25:24.152Z,100.00
2023-01-05T10:27:23.195Z,100.00
2023-01-05T10:27:59.319Z,100.00
2023-01-05T10:29:14.176Z,100.00
2023-01-05T10:30:24.948Z,100.00
2023-01-05T10:31:46.476Z,100.00
2023-01-05T10:33:25.506Z,100.00
2023-01-05T10:34:43.629Z,100.00
2023-01-05T10:36:06.262Z,100.00
2023-01-05T10:37:08.462Z,100.00
2023-01-05T10:38:45.687Z,100.00
2023-01-05T10:40:10.446Z,100.00
2023-01-05T10:41:34.087Z,100.00
2023-01-05T10:42:46.668Z,100.00
2023-01-05T10:44:17.741Z,100.00
2023-01-05T10:45:20.928Z,100.00
2023-01-05T10:46:42.825Z,100.00
2023-01-05T10:47:31.448Z,100.00
2023-01-05T10:48:35.854Z,100.00
2023-01-05T10:49:41.758Z,100.00
2023-01-05T10:50:47.786Z,100.00
2023-01-05T10:51:56.487Z,100.00
2023-01-05T10:52:58.112Z,100.00
2023-01-05T10:54:03.302Z,100.00
2023-01-05T10:55:10.160Z,100.00
2023-01-05T10:56:18.456Z,100.00
2023-01-05T10:57:35.701Z,100.00
2023-01-05T10:58:39.314Z,100.00
2023-01-05T11:00:03.379Z,100.00
2023-01-05T11:01:30.334Z,100.00
2023-01-05T11:02:36.614Z,100.00
2023-01-05T11:04:25.656Z,100.00
2023-01-05T11:04:48.827Z,100.00
2023-01-05T11:05:51.164Z,100.00
2023-01-05T11:06:57.208Z,100.00
2023-01-05T11:08:03.119Z,100.00
2023-01-05T11:09:23.525Z,100.00
2023-01-05T11:10:30.271Z,100.00
2023-01-05T11:11:33.095Z,100.00
2023-01-05T11:12:35.461Z,100.00
2023-01-05T11:13:41.075Z,100.00
2023-01-05T11:14:46.969Z,100.00
2023-01-05T11:15:55.551Z,100.00
2023-01-05T11:17:04.797Z,100.00
2023-01-05T11:18:09.210Z,100.00
2023-01-05T11:19:15.031Z,100.00
2023-01-05T11:20:18.020Z,100.00
2023-01-05T11:21:43.975Z,100.00
2023-01-05T11:22:48.940Z,100.00
2023-01-05T11:23:54.116Z,100.00
2023-01-05T11:25:15.308Z,100.00
2023-01-05T11:26:33.862Z,100.00
2023-01-05T11:27:37.007Z,100.00
2023-01-05T11:28:43.281Z,100.00
2023-01-05T11:29:45.893Z,100.00
2023-01-05T11:31:04.119Z,100.00
2023-01-05T11:32:10.054Z,100.00
2023-01-05T11:33:18.566Z,100.00
2023-01-05T11:34:28.727Z,100.00
2023-01-05T11:35:38.882Z,100.00
2023-01-05T11:36:42.395Z,100.00
2023-01-05T11:37:45.649Z,100.00
2023-01-05T11:38:54.290Z,100.00
2023-01-05T11:40:02.756Z,100.00
2023-01-05T11:41:08.576Z,100.00
2023-01-05T11:42:25.375Z,100.00
2023-01-05T11:43:27.876Z,100.00
2023-01-05T11:44:31.756Z,100.00
2023-01-05T11:45:43.217Z,100.00
2023-01-05T11:46:46.925Z,100.00
2023-01-05T11:47:56.059Z,100.00
2023-01-05T11:48:58.818Z,100.00
2023-01-05T11:50:11.257Z,100.00
2023-01-05T11:51:27.862Z,100.00
2023-01-05T11:52:37.323Z,100.00
2023-01-05T11:53:40.186Z,100.00
2023-01-05T11:54:42.938Z,100.00
2023-01-05T14:01:08.195Z,100.00
2023-01-05T14:03:51.536Z,100.00
2023-01-05T14:04:54.158Z,100.00
2023-01-05T14:06:07.658Z,100.00
2023-01-05T14:07:16.781Z,100.00
2023-01-05T14:08:34.580Z,100.00
2023-01-05T14:09:53.914Z,100.00
2023-01-05T14:11:13.333Z,100.00
2023-01-05T14:12:19.196Z,100.00
2023-01-05T14:13:44.359Z,100.00
2023-01-05T14:15:12.226Z,100.00
2023-01-05T14:16:40.747Z,100.00
2023-01-05T14:17:57.434Z,100.00
2023-01-05T14:19:26.747Z,100.00
2023-01-05T14:20:40.134Z,100.00
2023-01-05T14:21:53.892Z,100.00
2023-01-05T14:22:57.468Z,100.00
2023-01-05T14:24:00.128Z,100.00
2023-01-05T14:25:42.755Z,100.00
2023-01-05T14:27:06.819Z,100.00
2023-01-05T14:28:29.440Z,100.00
2023-01-05T14:29:53.117Z,100.00
2023-01-05T14:31:15.332Z,100.00
2023-01-05T14:32:40.709Z,100.00
2023-01-05T14:33:49.327Z,100.00
2023-01-05T14:35:00.808Z,100.00
2023-01-05T14:36:05.618Z,100.00
2023-01-05T14:37:19.381Z,100.00
2023-01-05T14:38:24.563Z,100.00
2023-01-05T14:39:45.607Z,100.00
2023-01-05T14:40:53.946Z,100.00
2023-01-05T14:42:14.864Z,100.00
2023-01-05T14:43:34.853Z,100.00
2023-01-05T14:44:50.012Z,100.00
2023-01-05T14:46:02.012Z,100.00
2023-01-05T14:47:05.542Z,100.00
2023-01-05T14:48:11.224Z,100.00
2023-01-05T14:49:37.967Z,100.00
2023-01-05T14:50:42.804Z,100.00
2023-01-05T14:51:57.202Z,100.00
2023-01-05T14:53:03.453Z,100.00
2023-01-05T14:54:05.707Z,100.00
2023-01-05T14:55:21.820Z,100.00
2023-01-05T14:56:19.587Z,100.00
2023-01-05T14:57:30.755Z,100.00
2023-01-05T14:58:42.267Z,100.00
2023-01-05T14:59:46.641Z,100.00
2023-01-05T15:00:59.193Z,100.00
2023-01-05T15:02:07.751Z,100.00
2023-01-05T15:03:14.462Z,100.00
2023-01-05T15:04:36.330Z,100.00
2023-01-05T15:05:49.455Z,100.00
2023-01-05T15:07:24.739Z,100.00
2023-01-05T15:08:53.173Z,100.00
2023-01-05T15:10:11.643Z,100.00
2023-01-05T15:11:22.719Z,100.00
2023-01-05T15:12:48.055Z,100.00
2023-01-05T15:14:15.235Z,100.00
2023-01-05T15:15:34.105Z,100.00
2023-01-05T15:16:48.524Z,100.00
2023-01-05T15:19:42.164Z,100.00
2023-01-05T15:21:09.477Z,100.00
2023-01-05T15:22:37.102Z,100.00
2023-01-05T15:23:34.838Z,100.00
2023-01-05T15:24:50.898Z,100.00
2023-01-05T15:26:08.118Z,100.00
2023-01-05T15:27:35.017Z,100.00
2023-01-05T15:28:55.691Z,100.00
2023-01-05T15:30:17.165Z,100.00
2023-01-05T15:31:38.942Z,100.00
2023-01-05T15:32:44.386Z,100.00
2023-01-05T15:34:13.440Z,100.00
2023-01-05T15:35:20.472Z,100.00
2023-01-05T15:36:42.525Z,100.00
2023-01-05T15:37:51.518Z,100.00
2023-01-05T15:38:56.005Z,100.00
2023-01-05T15:40:01.149Z,100.00
2023-01-05T15:41:08.021Z,100.00
2023-01-05T15:42:14.040Z,100.00
2023-01-05T15:43:17.191Z,100.00
2023-01-05T15:44:20.857Z,100.00
2023-01-05T15:45:31.672Z,100.00
2023-01-05T15:46:35.911Z,100.00
2023-01-05T15:47:39.487Z,100.00
2023-01-05T15:48:45.180Z,100.00
2023-01-05T15:49:49.238Z,100.00
2023-01-05T15:50:55.616Z,100.00
2023-01-05T15:52:00.537Z,100.00
2023-01-05T15:53:02.687Z,100.00
2023-01-05T15:54:05.517Z,100.00
2023-01-05T15:55:16.456Z,100.00
2023-01-05T15:56:32.485Z,100.00
2023-01-05T15:57:34.540Z,100.00
2023-01-05T15:58:45.913Z,100.00
2023-01-05T15:59:51.617Z,100.00
2023-01-05T16:01:07.352Z,100.00
2023-01-05T16:02:28.857Z,100.00
2023-01-05T16:03:36.690Z,100.00
2023-01-05T16:04:44.876Z,100.00
2023-01-05T16:05:48.351Z,100.00
2023-01-05T16:07:00.118Z,100.00
2023-01-05T16:09:31.002Z,100.00
2023-01-05T16:10:41.044Z,100.00
2023-01-05T16:11:47.302Z,100.00
2023-01-05T16:12:53.463Z,100.00
2023-01-05T16:14:02.755Z,100.00
2023-01-05T16:15:06.345Z,100.00
2023-01-05T16:16:50.461Z,100.00
2023-01-05T16:17:33.913Z,100.00
2023-01-05T16:18:40.724Z,100.00
2023-01-05T16:19:52.740Z,100.00